Time;durP1;ratioP1;P1;durP2;ratioP2;P2;SDS_P1;SDS_P2;PMS_P1;PMS_P2;Temp;Humidity;BMP_temperature;BMP_pressure;BME280_temperature;BME280_humidity;BME280_pressure;Samples;Min_cycle;Max_cycle;Signal;HPM_P1;HPM_P2
2022/02/01 00:01:50;;;;;;;;;;;;;;;-0.53;67.36;96011.84;5065691;28;19930;-58
2022/02/01 00:04:21;;;;;;;;;;;;;;;-0.57;68.34;96006.25;5063662;28;19932;-62
2022/02/01 00:07:02;;;;;;;;;;;;;;;-0.67;68.55;96016.69;5065157;28;19924;-57
2022/02/01 00:14:41;;;;;;;;;;;;;;;-0.64;70.27;95997.00;5065008;28;19940;-61
2022/02/01 00:20:36;;;;;;;;;;;;;;;-0.70;70.63;96017.34;5064368;28;19924;-58
2022/02/01 00:36:41;;;;;;;;;;;;;;;-0.76;70.31;96029.53;5064775;28;20216;-62
2022/02/01 00:39:12;;;;;;;;;;;;;;;-0.82;70.54;96028.09;5064120;28;19974;-61
2022/02/01 00:41:47;;;;;;;;;;;;;;;-0.84;69.31;96033.03;5064635;28;19930;-58
2022/02/01 00:44:13;;;;;;;;;;;;;;;-0.92;69.17;96039.28;5064093;28;20357;-61
2022/02/01 00:46:40;;;;;;;;;;;;;;;-0.91;70.16;96038.16;5064467;28;19979;-58
2022/02/01 00:49:07;;;;;;;;;;;;;;;-0.92;68.92;96031.13;5062698;28;19928;-63
2022/02/01 00:51:33;;;;;;;;;;;;;;;-1.01;70.10;96016.78;5063456;28;19924;-57
2022/02/01 00:54:00;;;;;;;;;;;;;;;-0.87;69.45;96017.38;5064395;28;19931;-58
2022/02/01 00:56:27;;;;;;;;;;;;;;;-0.99;70.23;96011.78;5064114;28;19935;-57
2022/02/01 00:58:53;;;;;;;;;;;;;;;-0.95;70.32;96015.47;5064126;28;19947;-63
2022/02/01 01:01:20;;;;;;;;;;;;;;;-1.03;70.40;96019.00;5064121;28;19951;-57
2022/02/01 01:03:47;;;;;;;;;;;;;;;-1.05;70.77;96013.09;5064162;28;19932;-60
2022/02/01 01:06:14;;;;;;;;;;;;;;;-0.96;70.92;96013.88;5079120;28;19951;-60
2022/02/01 01:08:41;;;;;;;;;;;;;;;-1.05;70.93;95999.50;5064202;28;19925;-61
2022/02/01 01:11:09;;;;;;;;;;;;;;;-1.03;71.33;95991.84;5064267;28;19924;-59
2022/02/01 01:43:54;;;;;;;;;;;;;;;-0.59;70.13;95966.94;5063985;28;20365;-61
2022/02/01 01:54:24;;;;;;;;;;;;;;;-1.10;72.10;95975.22;5063770;28;19975;-61
2022/02/01 01:56:53;;;;;;;;;;;;;;;-1.01;72.07;95967.88;5063653;28;19924;-61
2022/02/01 01:59:20;;;;;;;;;;;;;;;-0.91;71.71;95962.06;5063799;28;19932;-61
2022/02/01 02:01:47;;;;;;;;;;;;;;;-0.79;71.43;95959.50;5062024;28;19935;-61
2022/02/01 02:04:14;;;;;;;;;;;;;;;-0.76;71.87;95953.41;5066064;28;19932;-58
2022/02/01 02:06:41;;;;;;;;;;;;;;;-0.75;71.94;95933.25;5066826;28;19924;-61
2022/02/01 02:09:09;;;;;;;;;;;;;;;-0.74;72.36;95935.63;5066926;28;19924;-61
2022/02/01 02:11:44;;;;;;;;;;;;;;;-0.67;72.46;95930.50;5065370;28;19931;-58
2022/02/01 02:14:21;;;;;;;;;;;;;;;-0.61;72.72;95933.84;5066773;28;19924;-61
2022/02/01 02:16:59;;;;;;;;;;;;;;;-0.58;73.92;95927.72;5075085;28;20370;-61
2022/02/01 02:19:27;;;;;;;;;;;;;;;-0.59;73.16;95918.00;5086845;28;19923;-62
2022/02/01 02:21:55;;;;;;;;;;;;;;;-0.51;73.52;95917.16;5085677;28;19924;-62
2022/02/01 02:24:24;;;;;;;;;;;;;;;-0.49;72.75;95926.56;5085541;28;19924;-61
2022/02/01 02:26:51;;;;;;;;;;;;;;;-0.54;70.43;95906.94;5087438;28;19930;-59
2022/02/01 02:29:18;;;;;;;;;;;;;;;-0.48;69.70;95921.94;5086116;28;19924;-58
2022/02/01 02:31:46;;;;;;;;;;;;;;;-0.48;68.31;95921.94;5087001;28;20337;-61
2022/02/01 02:34:14;;;;;;;;;;;;;;;-0.49;68.02;95912.19;5086916;28;19923;-62
2022/02/01 02:36:48;;;;;;;;;;;;;;;-0.56;68.73;95922.78;5087217;28;19923;-59
2022/02/01 02:41:51;;;;;;;;;;;;;;;-0.66;70.46;95914.97;5087210;28;19975;-61
2022/02/01 02:47:04;;;;;;;;;;;;;;;-0.59;69.85;95920.72;5086759;28;19963;-59
2022/02/01 02:49:31;;;;;;;;;;;;;;;-0.65;69.96;95905.72;5086541;28;19924;-62
2022/02/01 02:51:57;;;;;;;;;;;;;;;-0.50;69.34;95916.03;5086166;28;19938;-58
2022/02/01 02:54:25;;;;;;;;;;;;;;;-0.48;69.60;95911.06;5086794;28;19943;-62
2022/02/01 02:56:53;;;;;;;;;;;;;;;-0.34;68.71;95922.50;5084471;28;20391;-60
2022/02/01 02:59:21;;;;;;;;;;;;;;;-0.27;68.75;95933.69;5086379;28;19931;-61
2022/02/01 03:01:48;;;;;;;;;;;;;;;-0.38;68.16;95937.91;5084799;28;20318;-61
2022/02/01 03:04:16;;;;;;;;;;;;;;;-0.31;68.34;95943.59;5086213;28;20018;-59
2022/02/01 03:06:42;;;;;;;;;;;;;;;-0.34;68.75;95953.22;5086466;28;19924;-61
2022/02/01 03:09:09;;;;;;;;;;;;;;;-0.40;69.44;95951.03;5086454;28;20407;-60
2022/02/01 03:11:36;;;;;;;;;;;;;;;-0.37;70.19;95951.16;5086537;28;19924;-58
2022/02/01 03:14:12;;;;;;;;;;;;;;;-0.57;71.92;95948.38;5084146;28;19924;-57
2022/02/01 03:16:56;;;;;;;;;;;;;;;-0.71;72.56;95950.53;5079285;28;19936;-60
2022/02/01 03:22:07;;;;;;;;;;;;;;;-0.57;71.86;95945.66;5065543;28;19936;-58
2022/02/01 03:24:34;;;;;;;;;;;;;;;-0.53;71.88;95952.03;5065434;28;20279;-62
2022/02/01 03:27:01;;;;;;;;;;;;;;;-0.52;71.83;95938.09;5064499;28;19924;-58
2022/02/01 03:29:28;;;;;;;;;;;;;;;-0.57;71.52;95934.78;5066036;28;19928;-61
2022/02/01 03:31:54;;;;;;;;;;;;;;;-0.54;72.19;95925.97;5065981;28;19920;-61
2022/02/01 03:34:21;;;;;;;;;;;;;;;-0.59;71.62;95932.41;5064402;28;19990;-58
2022/02/01 03:36:49;;;;;;;;;;;;;;;-0.59;72.38;95931.59;5064012;28;20455;-58
2022/02/01 03:39:16;;;;;;;;;;;;;;;-0.55;72.57;95946.91;5063828;28;19928;-58
2022/02/01 03:41:43;;;;;;;;;;;;;;;-0.56;72.57;95941.81;5065506;28;19924;-57
2022/02/01 03:44:11;;;;;;;;;;;;;;;-0.49;72.92;95942.13;5064025;28;19925;-58
2022/02/01 03:46:43;;;;;;;;;;;;;;;-0.39;71.73;95937.09;5064497;28;20438;-57
2022/02/01 03:49:10;;;;;;;;;;;;;;;-0.39;70.75;95936.28;5065632;28;19931;-57
2022/02/01 03:51:36;;;;;;;;;;;;;;;-0.37;71.25;95934.03;5065353;28;20315;-62
2022/02/01 03:54:03;;;;;;;;;;;;;;;-0.41;71.06;95924.97;5063706;28;20279;-60
2022/02/01 03:56:30;;;;;;;;;;;;;;;-0.28;71.59;95926.63;5064637;28;19924;-61
2022/02/01 03:58:57;;;;;;;;;;;;;;;-0.35;71.20;95926.38;5063697;28;19924;-61
2022/02/01 04:01:23;;;;;;;;;;;;;;;-0.41;71.41;95928.47;5065194;28;19925;-59
2022/02/01 04:03:50;;;;;;;;;;;;;;;-0.42;72.01;95928.78;5065264;28;19973;-62
2022/02/01 04:06:16;;;;;;;;;;;;;;;-0.35;71.61;95927.13;5064840;28;19924;-60
2022/02/01 04:08:44;;;;;;;;;;;;;;;-0.31;71.50;95935.44;5064948;28;19925;-58
2022/02/01 04:11:11;;;;;;;;;;;;;;;-0.34;71.48;95928.75;5064933;28;19924;-62
2022/02/01 04:13:37;;;;;;;;;;;;;;;-0.25;71.76;95909.66;5064709;28;19931;-60
2022/02/01 04:16:04;;;;;;;;;;;;;;;-0.32;71.51;95909.38;5065807;28;19924;-59
2022/02/01 04:18:31;;;;;;;;;;;;;;;-0.23;71.78;95921.00;5084382;28;19927;-59
2022/02/01 04:20:58;;;;;;;;;;;;;;;-0.19;72.08;95914.56;5084624;28;20593;-61
2022/02/01 04:23:25;;;;;;;;;;;;;;;-0.16;71.51;95918.56;5083369;28;19943;-60
2022/02/01 04:25:51;;;;;;;;;;;;;;;-0.38;72.68;95902.53;5084776;28;20304;-61
2022/02/01 04:28:18;;;;;;;;;;;;;;;-0.29;72.47;95897.84;5084431;28;20472;-59
2022/02/01 04:30:45;;;;;;;;;;;;;;;-0.30;72.72;95910.63;5084802;28;20288;-61
2022/02/01 04:33:12;;;;;;;;;;;;;;;-0.21;72.57;95910.59;5084236;28;20390;-62
2022/02/01 04:35:40;;;;;;;;;;;;;;;-0.20;72.14;95912.19;5084584;28;19934;-61
2022/02/01 04:38:06;;;;;;;;;;;;;;;-0.21;72.19;95886.13;5084643;28;19923;-58
2022/02/01 04:40:34;;;;;;;;;;;;;;;-0.25;73.05;95882.44;5084561;28;19946;-59
2022/02/01 04:43:03;;;;;;;;;;;;;;;-0.28;73.75;95883.09;5084448;28;20463;-60
2022/02/01 04:45:30;;;;;;;;;;;;;;;-0.30;73.62;95901.69;5084432;28;19924;-61
2022/02/01 04:47:57;;;;;;;;;;;;;;;-0.25;72.87;95912.38;5084927;28;20275;-61
2022/02/01 04:50:25;;;;;;;;;;;;;;;-0.22;73.21;95896.19;5082906;28;19924;-61
2022/02/01 04:52:53;;;;;;;;;;;;;;;-0.19;72.93;95902.91;5084405;28;19924;-59
2022/02/01 04:55:21;;;;;;;;;;;;;;;-0.19;72.29;95886.59;5084180;28;19938;-59
2022/02/01 04:57:54;;;;;;;;;;;;;;;-0.15;72.22;95895.66;5083682;28;19934;-59
2022/02/01 05:00:22;;;;;;;;;;;;;;;-0.30;72.95;95907.13;5083833;28;20395;-58
2022/02/01 05:02:49;;;;;;;;;;;;;;;-0.27;71.58;95884.72;5084540;28;19934;-60
2022/02/01 05:05:16;;;;;;;;;;;;;;;-0.19;71.09;95892.03;5084295;28;19923;-58
2022/02/01 05:07:43;;;;;;;;;;;;;;;-0.17;71.20;95896.00;5082832;28;19946;-59
2022/02/01 05:10:09;;;;;;;;;;;;;;;-0.13;70.53;95902.38;5083963;28;19935;-58
2022/02/01 05:12:37;;;;;;;;;;;;;;;-0.15;70.50;95906.56;5082451;28;19924;-62
2022/02/01 05:15:07;;;;;;;;;;;;;;;-0.20;71.46;95906.75;5084055;28;19924;-59
2022/02/01 05:17:39;;;;;;;;;;;;;;;-0.17;71.69;95906.06;5079030;28;20019;-61
2022/02/01 05:20:27;;;;;;;;;;;;;;;-0.13;71.57;95907.81;5063945;28;19924;-61
2022/02/01 05:22:54;;;;;;;;;;;;;;;-0.09;70.87;95902.50;5062490;28;20351;-58
2022/02/01 05:25:27;;;;;;;;;;;;;;;0.03;69.97;95921.66;5063904;28;20398;-62
2022/02/01 05:27:57;;;;;;;;;;;;;;;-0.04;70.35;95911.28;5063834;28;19947;-61
2022/02/01 05:30:24;;;;;;;;;;;;;;;0.03;70.06;95916.22;5062188;28;20478;-62
2022/02/01 05:32:51;;;;;;;;;;;;;;;-0.02;70.43;95908.22;5063780;28;20303;-59
2022/02/01 05:35:19;;;;;;;;;;;;;;;0.03;70.17;95911.53;5062647;28;19951;-61
2022/02/01 05:37:46;;;;;;;;;;;;;;;0.08;70.15;95918.72;5063877;28;19968;-59
2022/02/01 05:40:12;;;;;;;;;;;;;;;0.09;70.42;95920.31;5068101;28;20321;-62
2022/02/01 05:43:00;;;;;;;;;;;;;;;0.07;70.65;95911.69;5067824;28;19928;-59
2022/02/01 05:45:27;;;;;;;;;;;;;;;0.15;71.22;95924.44;5065973;28;19924;-59
2022/02/01 05:47:53;;;;;;;;;;;;;;;0.13;70.37;95907.63;5068201;28;19931;-61
2022/02/01 05:50:20;;;;;;;;;;;;;;;0.21;69.82;95909.50;5067649;28;19924;-62
2022/02/01 05:52:47;;;;;;;;;;;;;;;0.22;69.24;95915.75;5066249;28;19925;-62
2022/02/01 05:55:15;;;;;;;;;;;;;;;0.03;70.19;95927.09;5067651;28;19924;-60
2022/02/01 05:57:43;;;;;;;;;;;;;;;0.22;70.66;95935.63;5076968;28;19924;-58
2022/02/01 06:00:10;;;;;;;;;;;;;;;0.26;69.87;95936.53;5087058;28;19924;-60
2022/02/01 06:02:39;;;;;;;;;;;;;;;0.25;69.50;95940.38;5087355;28;19923;-60
2022/02/01 06:05:06;;;;;;;;;;;;;;;0.30;69.77;95942.13;5085775;28;20628;-59
2022/02/01 06:07:33;;;;;;;;;;;;;;;0.35;69.94;95953.59;5087794;28;20424;-59
2022/02/01 06:10:00;;;;;;;;;;;;;;;0.35;71.08;95960.97;5086234;28;19931;-59
2022/02/01 06:12:26;;;;;;;;;;;;;;;0.34;69.59;95943.84;5087193;28;20413;-62
2022/02/01 06:14:53;;;;;;;;;;;;;;;0.43;70.51;95930.94;5087656;28;20023;-60
2022/02/01 06:17:19;;;;;;;;;;;;;;;0.45;71.08;95923.25;5086989;28;20015;-60
2022/02/01 06:19:47;;;;;;;;;;;;;;;0.51;70.92;95938.25;5087180;28;19924;-62
2022/02/01 06:22:14;;;;;;;;;;;;;;;0.57;71.34;95953.25;5086023;28;19967;-58
2022/02/01 06:24:40;;;;;;;;;;;;;;;0.68;71.08;95948.22;5085586;28;19923;-60
2022/02/01 06:27:07;;;;;;;;;;;;;;;0.75;70.30;95935.63;5086499;28;19924;-58
2022/02/01 06:29:33;;;;;;;;;;;;;;;0.77;69.41;95941.56;5085244;28;19924;-60
2022/02/01 06:32:00;;;;;;;;;;;;;;;0.91;69.47;95942.06;5087213;28;19930;-60
2022/02/01 06:34:27;;;;;;;;;;;;;;;1.02;68.67;95943.22;5085484;28;19923;-61
2022/02/01 06:36:54;;;;;;;;;;;;;;;1.08;69.20;95947.34;5086896;28;19924;-61
2022/02/01 06:39:21;;;;;;;;;;;;;;;1.09;68.07;95938.00;5087070;28;19924;-61
2022/02/01 06:41:48;;;;;;;;;;;;;;;1.20;67.53;95933.72;5087014;28;19927;-61
2022/02/01 06:44:15;;;;;;;;;;;;;;;1.31;67.19;95928.66;5087071;28;19924;-62
2022/02/01 06:46:41;;;;;;;;;;;;;;;1.43;66.10;95936.84;5087309;28;19931;-61
2022/02/01 06:49:11;;;;;;;;;;;;;;;1.38;65.62;95940.59;5077296;28;20319;-58
2022/02/01 06:51:38;;;;;;;;;;;;;;;1.44;65.03;95939.22;5078299;28;19929;-61
2022/02/01 06:54:05;;;;;;;;;;;;;;;1.49;64.90;95943.66;5075709;28;20465;-58
2022/02/01 06:56:33;;;;;;;;;;;;;;;1.37;65.44;95932.75;5080706;28;19981;-58
2022/02/01 06:59:00;;;;;;;;;;;;;;;1.35;65.90;95940.47;5070299;28;19924;-62
2022/02/01 07:01:27;;;;;;;;;;;;;;;1.30;65.69;95941.47;5076543;28;20422;-57
2022/02/01 07:03:54;;;;;;;;;;;;;;;1.44;66.20;95933.78;5074929;28;19930;-58
2022/02/01 07:06:21;;;;;;;;;;;;;;;1.40;65.97;95932.88;5069559;28;19924;-57
2022/02/01 07:08:49;;;;;;;;;;;;;;;1.45;66.08;95935.34;5074556;28;20492;-60
2022/02/01 07:11:19;;;;;;;;;;;;;;;1.58;64.64;95939.69;5082225;28;19931;-61
2022/02/01 07:13:47;;;;;;;;;;;;;;;1.56;63.53;95922.84;5081494;28;20113;-58
2022/02/01 07:16:14;;;;;;;;;;;;;;;1.70;63.28;95925.28;5073455;28;19924;-56
2022/02/01 07:18:41;;;;;;;;;;;;;;;1.86;62.12;95928.09;5070687;28;19924;-64
2022/02/01 07:21:07;;;;;;;;;;;;;;;1.92;61.49;95921.28;5075633;28;20409;-64
2022/02/01 07:23:35;;;;;;;;;;;;;;;2.13;60.20;95916.47;5078962;28;19981;-58
2022/02/01 07:26:03;;;;;;;;;;;;;;;2.24;60.91;95928.53;5072989;28;19928;-62
2022/02/01 07:28:30;;;;;;;;;;;;;;;2.25;60.60;95932.84;5068314;28;19928;-57
2022/02/01 07:30:59;;;;;;;;;;;;;;;2.13;61.17;95949.25;5080994;28;20360;-60
2022/02/01 07:33:26;;;;;;;;;;;;;;;1.96;62.04;95939.34;5089815;28;19920;-62
2022/02/01 07:35:53;;;;;;;;;;;;;;;2.30;62.14;95933.41;5067941;28;19924;-58
2022/02/01 07:38:24;;;;;;;;;;;;;;;2.60;61.29;95936.63;5082749;28;19923;-62
2022/02/01 07:40:53;;;;;;;;;;;;;;;2.71;61.11;95943.19;5080147;28;20402;-58
2022/02/01 07:43:20;;;;;;;;;;;;;;;2.71;60.14;95951.41;5074064;28;19928;-66
2022/02/01 07:45:48;;;;;;;;;;;;;;;2.75;59.77;95960.50;5072167;28;19981;-66
2022/02/01 07:48:15;;;;;;;;;;;;;;;2.74;58.97;95954.25;5074394;28;19931;-64
2022/02/01 07:50:43;;;;;;;;;;;;;;;2.79;59.23;95948.53;5072200;28;19932;-62
2022/02/01 07:53:10;;;;;;;;;;;;;;;2.90;58.80;95948.81;5068729;28;20022;-62
2022/02/01 07:55:37;;;;;;;;;;;;;;;3.03;58.44;95950.38;5073444;28;19924;-62
2022/02/01 07:58:04;;;;;;;;;;;;;;;3.18;58.64;95949.59;5071402;28;19931;-59
2022/02/01 08:00:31;;;;;;;;;;;;;;;3.37;58.27;95951.69;5082104;28;20313;-59
2022/02/01 08:02:58;;;;;;;;;;;;;;;2.67;62.22;95956.75;5076487;28;19946;-61
2022/02/01 08:05:26;;;;;;;;;;;;;;;2.03;66.68;95966.09;5073240;28;20379;-57
2022/02/01 08:07:53;;;;;;;;;;;;;;;2.00;67.81;95966.78;5075794;28;19924;-59
2022/02/01 08:10:20;;;;;;;;;;;;;;;1.70;70.64;95955.28;5070630;28;19928;-64
2022/02/01 08:18:24;;;;;;;;;;;;;;;1.58;69.98;95959.94;5067889;28;19928;-62
2022/02/01 08:23:20;;;;;;;;;;;;;;;1.39;71.82;95980.34;5063952;28;19935;-60
2022/02/01 08:25:49;;;;;;;;;;;;;;;1.75;70.80;95970.63;5072396;28;19924;-61
2022/02/01 08:28:16;;;;;;;;;;;;;;;2.22;70.28;95979.97;5070993;28;19972;-63
2022/02/01 08:30:42;;;;;;;;;;;;;;;2.52;67.91;95978.56;5074211;28;19970;-61
2022/02/01 08:33:09;;;;;;;;;;;;;;;2.78;65.20;95978.97;5063803;28;19928;-58
2022/02/01 08:35:36;;;;;;;;;;;;;;;3.08;62.64;95972.00;5072498;28;19967;-60
2022/02/01 08:38:18;;;;;;;;;;;;;;;3.35;62.10;95973.91;5070382;28;19924;-60
2022/02/01 08:40:46;;;;;;;;;;;;;;;3.61;61.39;95974.22;5073652;28;20383;-64
2022/02/01 08:43:14;;;;;;;;;;;;;;;3.76;59.67;95978.91;5078730;28;20401;-58
2022/02/01 08:45:42;;;;;;;;;;;;;;;3.78;59.04;95968.41;5081055;28;19930;-62
2022/02/01 08:48:09;;;;;;;;;;;;;;;3.84;58.88;95977.94;5071946;28;19928;-60
2022/02/01 08:50:37;;;;;;;;;;;;;;;3.93;58.60;95973.09;5071128;28;19925;-60
2022/02/01 08:53:31;;;;;;;;;;;;;;;3.87;58.65;95970.97;5073864;28;20019;-57
2022/02/01 08:58:27;;;;;;;;;;;;;;;4.30;57.73;95977.13;5070057;28;19930;-62
2022/02/01 09:00:54;;;;;;;;;;;;;;;4.39;57.78;95974.97;5068248;28;19967;-56
2022/02/01 09:03:21;;;;;;;;;;;;;;;4.39;57.84;95993.38;5064092;28;19924;-64
2022/02/01 09:05:49;;;;;;;;;;;;;;;4.40;58.11;95976.59;5067248;28;19924;-59
2022/02/01 09:08:16;;;;;;;;;;;;;;;4.55;57.58;95977.69;5071564;28;20379;-61
2022/02/01 09:10:43;;;;;;;;;;;;;;;4.63;57.40;95980.22;5076148;28;19924;-60
2022/02/01 09:13:09;;;;;;;;;;;;;;;4.83;57.08;95977.50;5070294;28;19967;-59
2022/02/01 09:15:36;;;;;;;;;;;;;;;4.87;56.86;95973.69;5081858;28;19962;-60
2022/02/01 09:18:03;;;;;;;;;;;;;;;4.90;56.64;95977.69;5072117;28;20404;-62
2022/02/01 09:20:30;;;;;;;;;;;;;;;5.07;56.63;95969.03;5071374;28;20015;-62
2022/02/01 09:22:57;;;;;;;;;;;;;;;5.20;55.97;95970.47;5074288;28;20487;-63
2022/02/01 09:25:23;;;;;;;;;;;;;;;5.17;56.13;95965.69;5074000;28;19924;-62
2022/02/01 09:27:51;;;;;;;;;;;;;;;5.33;54.97;95964.44;5066413;28;20354;-62
2022/02/01 09:30:20;;;;;;;;;;;;;;;5.49;54.67;95967.09;5072908;28;19924;-62
2022/02/01 09:32:47;;;;;;;;;;;;;;;5.17;55.56;95971.19;5074512;28;20292;-60
2022/02/01 09:35:14;;;;;;;;;;;;;;;4.64;58.31;95970.88;5071147;28;19927;-61
2022/02/01 09:37:41;;;;;;;;;;;;;;;4.07;59.78;95973.44;5077472;28;20301;-62
2022/02/01 09:40:28;;;;;;;;;;;;;;;4.40;61.08;95982.06;5071708;28;20492;-62
2022/02/01 09:42:55;;;;;;;;;;;;;;;4.55;58.40;95973.00;5074775;28;20391;-63
2022/02/01 09:45:21;;;;;;;;;;;;;;;4.52;58.92;95967.44;5064599;28;20410;-64
2022/02/01 09:48:02;;;;;;;;;;;;;;;4.74;59.18;95964.03;5068628;28;20383;-62
2022/02/01 09:50:29;;;;;;;;;;;;;;;4.87;58.95;96033.28;5073121;28;19925;-61
2022/02/01 09:52:56;;;;;;;;;;;;;;;5.06;58.35;96033.28;5073076;28;19925;-58
2022/02/01 09:55:23;;;;;;;;;;;;;;;5.00;58.59;95955.94;5071450;28;19924;-61
2022/02/01 09:57:52;;;;;;;;;;;;;;;5.22;57.84;95952.47;5063401;28;20317;-61
2022/02/01 10:00:22;;;;;;;;;;;;;;;5.36;57.87;95940.97;5063510;28;19924;-67
2022/02/01 10:03:06;;;;;;;;;;;;;;;5.44;57.88;95942.69;5068124;28;19925;-67
2022/02/01 10:05:35;;;;;;;;;;;;;;;5.37;58.12;95943.38;5070596;28;20051;-59
2022/02/01 10:08:02;;;;;;;;;;;;;;;5.35;58.62;95944.88;5065503;28;20395;-62
2022/02/01 10:10:32;;;;;;;;;;;;;;;5.55;58.52;95938.97;5071032;28;19924;-63
2022/02/01 10:13:08;;;;;;;;;;;;;;;2.90;57.57;95535.94;5071628;28;19928;-59
2022/02/01 10:15:34;;;;;;;;;;;;;;;5.65;56.91;95937.59;5070825;28;19924;-59
2022/02/01 10:18:03;;;;;;;;;;;;;;;5.68;56.76;95943.16;5076106;28;20466;-68
2022/02/01 10:20:42;;;;;;;;;;;;;;;5.77;56.42;95946.44;5066902;28;19935;-63
2022/02/01 10:23:38;;;;;;;;;;;;;;;5.54;57.08;95937.41;5080009;28;19924;-71
2022/02/01 10:26:17;;;;;;;;;;;;;;;5.51;57.02;95942.81;5063085;28;19947;-67
2022/02/01 10:31:57;;;;;;;;;;;;;;;5.24;64.32;95935.63;5074020;28;20382;-69
2022/02/01 10:36:53;;;;;;;;;;;;;;;4.98;69.13;95935.53;5073499;28;20326;-64
2022/02/01 10:39:21;;;;;;;;;;;;;;;5.02;69.35;95936.38;5070069;28;20350;-62
2022/02/01 10:41:55;;;;;;;;;;;;;;;4.77;70.68;95922.16;5076633;28;20203;-61
2022/02/01 10:44:22;;;;;;;;;;;;;;;4.81;70.80;95908.50;5081178;28;19924;-61
2022/02/01 10:46:50;;;;;;;;;;;;;;;4.79;70.76;95921.81;5083452;28;19931;-61
2022/02/01 10:49:26;;;;;;;;;;;;;;;4.82;70.50;95932.06;5080519;28;19925;-59
2022/02/01 10:52:04;;;;;;;;;;;;;;;5.07;69.37;95922.38;5075382;28;19946;-71
2022/02/01 10:54:43;;;;;;;;;;;;;;;5.29;68.64;95907.88;5072113;28;20459;-71
2022/02/01 10:57:11;;;;;;;;;;;;;;;5.00;69.78;95911.25;5079773;28;20027;-60
2022/02/01 10:59:39;;;;;;;;;;;;;;;5.13;69.92;95901.69;5069710;28;19924;-58
2022/02/01 11:02:06;;;;;;;;;;;;;;;5.45;69.99;95905.84;5074460;28;19924;-62
2022/02/01 11:04:34;;;;;;;;;;;;;;;5.66;69.26;95896.00;5065637;28;19930;-62
2022/02/01 11:07:01;;;;;;;;;;;;;;;5.89;68.73;95888.59;5065622;28;20554;-62
2022/02/01 11:09:31;;;;;;;;;;;;;;;6.01;68.01;95887.59;5065581;28;19989;-62
2022/02/01 11:12:06;;;;;;;;;;;;;;;5.51;70.09;95896.94;5065757;28;19935;-62
2022/02/01 11:14:36;;;;;;;;;;;;;;;5.44;70.90;95904.22;5064296;28;20038;-61
2022/02/01 11:17:07;;;;;;;;;;;;;;;5.59;69.84;95893.16;5065237;28;19936;-61
2022/02/01 11:20:03;;;;;;;;;;;;;;;5.95;70.24;95889.06;5065011;28;20019;-62
2022/02/01 11:22:44;;;;;;;;;;;;;;;6.01;70.91;95885.63;5062733;28;20065;-61
2022/02/01 11:25:24;;;;;;;;;;;;;;;5.94;70.98;95884.75;5065258;28;19934;-61
2022/02/01 11:28:31;;;;;;;;;;;;;;;6.09;72.05;95881.03;5065339;28;20378;-62
2022/02/01 11:30:49;;;;;;;;;;;;;;;6.07;72.66;95880.59;5065235;28;19943;-62
2022/02/01 11:33:16;;;;;;;;;;;;;;;6.03;73.26;95877.00;5063472;28;20312;-61
2022/02/01 11:35:43;;;;;;;;;;;;;;;5.90;73.81;95878.38;5064480;28;20290;-62
2022/02/01 11:38:21;;;;;;;;;;;;;;;5.60;76.41;95880.19;5071392;28;19923;-63
2022/02/01 11:40:57;;;;;;;;;;;;;;;5.51;77.18;95871.41;5074959;28;19924;-59
2022/02/01 11:43:40;;;;;;;;;;;;;;;5.71;77.68;95870.19;5077371;28;19924;-65
2022/02/01 11:46:09;;;;;;;;;;;;;;;5.98;77.51;95874.56;5073932;28;20375;-62
2022/02/01 11:48:40;;;;;;;;;;;;;;;5.82;77.76;95866.50;5083258;28;19924;-60
2022/02/01 11:51:08;;;;;;;;;;;;;;;6.11;77.82;95864.97;5076305;28;19930;-60
2022/02/01 11:53:37;;;;;;;;;;;;;;;6.26;75.81;95855.75;5076774;28;19924;-63
2022/02/01 11:56:05;;;;;;;;;;;;;;;6.28;76.47;95866.38;5074937;28;19997;-60
2022/02/01 11:58:35;;;;;;;;;;;;;;;6.14;76.57;95862.28;5066385;28;19924;-60
2022/02/01 12:01:03;;;;;;;;;;;;;;;6.08;78.04;95858.28;5072791;28;20554;-59
2022/02/01 12:03:32;;;;;;;;;;;;;;;6.28;76.91;95861.69;5066246;28;20409;-62
2022/02/01 12:06:05;;;;;;;;;;;;;;;6.13;76.49;95870.91;5073755;28;19974;-61
2022/02/01 12:08:32;;;;;;;;;;;;;;;5.86;76.82;95867.31;5066683;28;19934;-62
2022/02/01 12:11:01;;;;;;;;;;;;;;;5.84;77.29;95868.88;5068369;28;19931;-60
2022/02/01 12:13:29;;;;;;;;;;;;;;;5.84;77.34;95868.88;5074829;28;20430;-62
2022/02/01 12:15:59;;;;;;;;;;;;;;;5.70;77.83;95866.66;5078256;28;19930;-63
2022/02/01 12:18:29;;;;;;;;;;;;;;;5.81;78.08;95875.06;5072828;28;20003;-59
2022/02/01 12:21:05;;;;;;;;;;;;;;;5.87;76.44;95873.63;5078882;28;19934;-65
2022/02/01 12:23:32;;;;;;;;;;;;;;;5.90;76.06;95872.88;5075343;28;20011;-60
2022/02/01 12:25:59;;;;;;;;;;;;;;;5.92;74.47;95876.88;5082637;28;20314;-62
2022/02/01 12:28:26;;;;;;;;;;;;;;;5.93;74.60;95872.13;5070344;28;19956;-64
2022/02/01 12:31:04;;;;;;;;;;;;;;;5.86;74.89;95880.28;5071439;28;20413;-64
2022/02/01 12:33:31;;;;;;;;;;;;;;;5.06;79.88;95876.88;5068114;28;19956;-64
2022/02/01 12:35:58;;;;;;;;;;;;;;;5.14;80.12;95878.59;5078659;28;19935;-59
2022/02/01 12:38:28;;;;;;;;;;;;;;;5.27;78.52;95888.25;5072457;28;20425;-62
2022/02/01 12:40:59;;;;;;;;;;;;;;;5.31;78.08;95891.84;5069164;28;20355;-64
2022/02/01 12:43:29;;;;;;;;;;;;;;;5.26;78.34;95889.41;5071405;28;19934;-61
2022/02/01 12:46:18;;;;;;;;;;;;;;;5.03;79.26;95899.53;5071540;28;20386;-60
2022/02/01 12:48:49;;;;;;;;;;;;;;;4.96;80.37;95899.41;5069739;28;19931;-64
2022/02/01 12:51:16;;;;;;;;;;;;;;;5.13;79.89;95904.44;5067227;28;19930;-61
2022/02/01 12:53:44;;;;;;;;;;;;;;;5.10;79.92;95905.97;5071052;28;20469;-62
2022/02/01 12:56:12;;;;;;;;;;;;;;;5.12;79.62;95902.88;5068904;28;19924;-60
2022/02/01 12:58:39;;;;;;;;;;;;;;;5.09;80.13;95903.59;5064258;28;19924;-62
2022/02/01 13:01:07;;;;;;;;;;;;;;;5.17;79.78;95899.84;5076569;28;19931;-64
2022/02/01 13:03:41;;;;;;;;;;;;;;;5.16;80.28;95900.97;5071853;28;19924;-62
2022/02/01 13:06:11;;;;;;;;;;;;;;;5.17;80.37;95900.59;5075981;28;19930;-62
2022/02/01 13:12:55;;;;;;;;;;;;;;;5.25;79.81;95904.31;5066328;28;19946;-61
2022/02/01 13:16:59;;;;;;;;;;;;;;;5.46;79.83;95896.44;5074692;28;20020;-63
2022/02/01 13:22:50;;;;;;;;;;;;;;;5.05;80.58;95919.19;5067983;28;19931;-60
2022/02/01 13:25:25;;;;;;;;;;;;;;;5.18;80.45;95928.84;5065951;28;21001;-64
2022/02/01 13:27:56;;;;;;;;;;;;;;;5.19;80.55;95920.25;5068842;28;20023;-63
2022/02/01 13:30:23;;;;;;;;;;;;;;;5.02;81.89;95936.38;5093642;28;20027;-58
2022/02/01 13:32:50;;;;;;;;;;;;;;;4.81;83.50;95924.97;5076411;28;19923;-65
2022/02/01 13:35:43;;;;;;;;;;;;;;;4.88;83.18;95938.84;5069689;28;19931;-63
2022/02/01 13:38:11;;;;;;;;;;;;;;;4.29;87.18;95928.94;5075768;28;19925;-61
2022/02/01 13:40:39;;;;;;;;;;;;;;;4.61;84.19;95924.97;5073315;28;19924;-61
2022/02/01 13:43:13;;;;;;;;;;;;;;;4.77;83.14;95927.66;5070870;28;19928;-58
2022/02/01 13:45:39;;;;;;;;;;;;;;;4.13;84.49;95933.66;5076347;28;19924;-60
2022/02/01 13:48:11;;;;;;;;;;;;;;;4.03;86.52;95934.19;5077730;28;20374;-60
2022/02/01 13:50:39;;;;;;;;;;;;;;;4.35;83.79;95933.00;5074246;28;19931;-65
2022/02/01 13:53:06;;;;;;;;;;;;;;;4.62;82.59;95934.78;5076619;28;20351;-62
2022/02/01 13:55:36;;;;;;;;;;;;;;;4.51;82.71;95928.25;5075199;28;19930;-60
2022/02/01 13:58:02;;;;;;;;;;;;;;;4.48;80.07;95928.97;5071319;28;19936;-62
2022/02/01 14:00:34;;;;;;;;;;;;;;;4.54;76.20;95938.50;5079285;28;19931;-62
2022/02/01 14:03:14;;;;;;;;;;;;;;;4.08;81.35;95942.16;5065082;28;19928;-61
2022/02/01 14:05:42;;;;;;;;;;;;;;;4.05;81.08;95953.00;5065083;28;20314;-62
2022/02/01 14:08:25;;;;;;;;;;;;;;;4.01;83.90;95958.44;5075445;28;19931;-63
2022/02/01 14:32:05;;;;;;;;;;;;;;;3.52;69.71;95979.09;5073377;28;19932;-61
2022/02/01 14:35:40;;;;;;;;;;;;;;;3.33;69.46;95981.69;5075287;28;19924;-61
2022/02/01 14:38:13;;;;;;;;;;;;;;;3.34;68.96;95988.75;5070698;28;19924;-63
2022/02/01 14:43:46;;;;;;;;;;;;;;;3.37;70.44;95990.78;5068280;28;19924;-62
2022/02/01 14:46:12;;;;;;;;;;;;;;;3.23;70.61;95998.59;5074601;28;19934;-61
2022/02/01 14:48:39;;;;;;;;;;;;;;;3.31;71.34;96005.88;5076970;28;19936;-60
2022/02/01 14:51:06;;;;;;;;;;;;;;;3.21;70.99;96009.09;5086999;28;19931;-60
2022/02/01 14:53:33;;;;;;;;;;;;;;;3.25;71.11;96015.47;5086472;28;19930;-58
2022/02/01 14:56:26;;;;;;;;;;;;;;;3.16;71.11;96020.31;5086174;28;20374;-58
2022/02/01 15:07:03;;;;;;;;;;;;;;;3.34;72.14;96048.16;5086108;28;20359;-59
2022/02/01 15:15:01;;;;;;;;;;;;;;;2.98;75.08;96052.63;5086115;28;20019;-56
2022/02/01 15:17:27;;;;;;;;;;;;;;;2.84;75.33;96067.78;5084737;28;19924;-59